sensor_id;sensor_type;location;lat;lon;timestamp;temperature;humidity
10386;DHT22;34307;51.332;12.334;2023-07-20T00:02:14;15.50;99.90
10386;DHT22;34307;51.332;12.334;2023-07-20T00:04:44;15.50;99.90
10386;DHT22;34307;51.332;12.334;2023-07-20T00:07:19;15.50;99.90
10386;DHT22;34307;51.332;12.334;2023-07-20T00:09:47;15.50;99.90
10386;DHT22;34307;51.332;12.334;2023-07-20T00:12:23;15.60;99.90
10386;DHT22;34307;51.332;12.334;2023-07-20T00:15:18;15.50;99.90
10386;DHT22;34307;51.332;12.334;2023-07-20T00:17:47;15.40;99.90
10386;DHT22;34307;51.332;12.334;2023-07-20T00:20:15;15.50;99.90
10386;DHT22;34307;51.332;12.334;2023-07-20T00:22:44;15.50;99.90
10386;DHT22;34307;51.332;12.334;2023-07-20T00:25:12;15.50;99.90
10386;DHT22;34307;51.332;12.334;2023-07-20T00:27:42;15.50;99.90
10386;DHT22;34307;51.332;12.334;2023-07-20T00:30:12;15.50;99.90
10386;DHT22;34307;51.332;12.334;2023-07-20T00:32:40;15.50;99.90
10386;DHT22;34307;51.332;12.334;2023-07-20T00:35:09;15.50;99.90
10386;DHT22;34307;51.332;12.334;2023-07-20T00:37:39;15.50;99.90
10386;DHT22;34307;51.332;12.334;2023-07-20T00:40:09;15.60;99.90
10386;DHT22;34307;51.332;12.334;2023-07-20T00:42:38;15.60;99.90
10386;DHT22;34307;51.332;12.334;2023-07-20T00:45:06;15.60;99.90
10386;DHT22;34307;51.332;12.334;2023-07-20T00:47:36;15.60;99.90
10386;DHT22;34307;51.332;12.334;2023-07-20T00:50:05;15.60;99.90
10386;DHT22;34307;51.332;12.334;2023-07-20T00:52:34;15.60;99.90
10386;DHT22;34307;51.332;12.334;2023-07-20T00:55:04;15.60;99.90
10386;DHT22;34307;51.332;12.334;2023-07-20T00:57:34;15.60;99.90
10386;DHT22;34307;51.332;12.334;2023-07-20T01:00:07;15.60;99.90
10386;DHT22;34307;51.332;12.334;2023-07-20T01:02:36;15.70;99.90
10386;DHT22;34307;51.332;12.334;2023-07-20T01:05:06;15.60;99.90
10386;DHT22;34307;51.332;12.334;2023-07-20T01:07:38;15.60;99.90
10386;DHT22;34307;51.332;12.334;2023-07-20T01:10:13;15.60;99.90
10386;DHT22;34307;51.332;12.334;2023-07-20T01:12:52;15.60;99.90
10386;DHT22;34307;51.332;12.334;2023-07-20T01:15:22;15.60;99.90
10386;DHT22;34307;51.332;12.334;2023-07-20T01:17:50;15.50;99.90
10386;DHT22;34307;51.332;12.334;2023-07-20T01:20:20;15.50;99.90
10386;DHT22;34307;51.332;12.334;2023-07-20T01:23:27;15.50;99.90
10386;DHT22;34307;51.332;12.334;2023-07-20T01:26:32;15.50;99.90
10386;DHT22;34307;51.332;12.334;2023-07-20T01:29:31;15.50;99.90
10386;DHT22;34307;51.332;12.334;2023-07-20T01:32:06;15.40;99.90
10386;DHT22;34307;51.332;12.334;2023-07-20T01:34:37;15.50;99.90
10386;DHT22;34307;51.332;12.334;2023-07-20T01:37:09;15.40;99.90
10386;DHT22;34307;51.332;12.334;2023-07-20T01:39:39;15.40;99.90
10386;DHT22;34307;51.332;12.334;2023-07-20T01:42:07;15.40;99.90
10386;DHT22;34307;51.332;12.334;2023-07-20T01:44:37;15.40;99.90
10386;DHT22;34307;51.332;12.334;2023-07-20T01:47:06;15.40;99.90
10386;DHT22;34307;51.332;12.334;2023-07-20T01:49:36;15.40;99.90
10386;DHT22;34307;51.332;12.334;2023-07-20T01:52:06;15.30;99.90
10386;DHT22;34307;51.332;12.334;2023-07-20T01:54:34;15.30;99.90
10386;DHT22;34307;51.332;12.334;2023-07-20T01:57:03;15.30;99.90
10386;DHT22;34307;51.332;12.334;2023-07-20T01:59:32;15.20;99.90
10386;DHT22;34307;51.332;12.334;2023-07-20T02:02:01;15.30;99.90
10386;DHT22;34307;51.332;12.334;2023-07-20T02:04:31;15.20;99.90
10386;DHT22;34307;51.332;12.334;2023-07-20T02:06:58;15.20;99.90
10386;DHT22;34307;51.332;12.334;2023-07-20T02:09:27;15.30;99.90
10386;DHT22;34307;51.332;12.334;2023-07-20T02:11:55;15.20;99.90
10386;DHT22;34307;51.332;12.334;2023-07-20T02:14:24;15.20;99.90
10386;DHT22;34307;51.332;12.334;2023-07-20T02:16:53;15.20;99.90
10386;DHT22;34307;51.332;12.334;2023-07-20T02:19:26;15.20;99.90
10386;DHT22;34307;51.332;12.334;2023-07-20T02:21:58;15.20;99.90
10386;DHT22;34307;51.332;12.334;2023-07-20T02:24:27;15.20;99.90
10386;DHT22;34307;51.332;12.334;2023-07-20T02:27:01;15.20;99.90
10386;DHT22;34307;51.332;12.334;2023-07-20T02:29:29;15.30;99.90
10386;DHT22;34307;51.332;12.334;2023-07-20T02:31:57;15.30;99.90
10386;DHT22;34307;51.332;12.334;2023-07-20T02:34:26;15.40;99.90
10386;DHT22;34307;51.332;12.334;2023-07-20T02:36:54;15.40;99.90
10386;DHT22;34307;51.332;12.334;2023-07-20T02:39:29;15.40;99.90
10386;DHT22;34307;51.332;12.334;2023-07-20T02:41:57;15.40;99.90
10386;DHT22;34307;51.332;12.334;2023-07-20T02:44:25;15.40;99.90
10386;DHT22;34307;51.332;12.334;2023-07-20T02:46:56;15.40;99.90
10386;DHT22;34307;51.332;12.334;2023-07-20T02:49:25;15.40;99.90
10386;DHT22;34307;51.332;12.334;2023-07-20T02:51:53;15.40;99.90
10386;DHT22;34307;51.332;12.334;2023-07-20T02:54:21;15.40;99.90
10386;DHT22;34307;51.332;12.334;2023-07-20T02:56:51;15.50;99.90
10386;DHT22;34307;51.332;12.334;2023-07-20T02:59:19;15.40;99.90
10386;DHT22;34307;51.332;12.334;2023-07-20T03:01:47;15.40;99.90
10386;DHT22;34307;51.332;12.334;2023-07-20T03:04:18;15.50;99.90
10386;DHT22;34307;51.332;12.334;2023-07-20T03:06:52;15.50;99.90
10386;DHT22;34307;51.332;12.334;2023-07-20T03:09:20;15.50;99.90
10386;DHT22;34307;51.332;12.334;2023-07-20T03:11:51;15.50;99.90
10386;DHT22;34307;51.332;12.334;2023-07-20T03:14:19;15.50;99.90
10386;DHT22;34307;51.332;12.334;2023-07-20T03:16:47;15.50;99.90
10386;DHT22;34307;51.332;12.334;2023-07-20T03:19:16;15.50;99.90
10386;DHT22;34307;51.332;12.334;2023-07-20T03:21:44;15.50;99.90
10386;DHT22;34307;51.332;12.334;2023-07-20T03:24:12;15.50;99.90
10386;DHT22;34307;51.332;12.334;2023-07-20T03:26:42;15.50;99.90
10386;DHT22;34307;51.332;12.334;2023-07-20T03:29:12;15.50;99.90
10386;DHT22;34307;51.332;12.334;2023-07-20T03:31:42;15.50;99.90
10386;DHT22;34307;51.332;12.334;2023-07-20T03:34:10;15.40;99.90
10386;DHT22;34307;51.332;12.334;2023-07-20T03:36:41;15.40;99.90
10386;DHT22;34307;51.332;12.334;2023-07-20T03:39:12;15.50;99.90
10386;DHT22;34307;51.332;12.334;2023-07-20T03:41:41;15.50;99.90
10386;DHT22;34307;51.332;12.334;2023-07-20T03:44:09;15.60;99.90
10386;DHT22;34307;51.332;12.334;2023-07-20T03:46:39;15.60;99.90
10386;DHT22;34307;51.332;12.334;2023-07-20T03:49:08;15.50;99.90
10386;DHT22;34307;51.332;12.334;2023-07-20T03:51:37;15.60;99.90
10386;DHT22;34307;51.332;12.334;2023-07-20T03:54:08;15.60;99.90
10386;DHT22;34307;51.332;12.334;2023-07-20T03:56:36;15.50;99.90
10386;DHT22;34307;51.332;12.334;2023-07-20T03:59:06;15.60;99.90
10386;DHT22;34307;51.332;12.334;2023-07-20T04:01:35;15.60;99.90
10386;DHT22;34307;51.332;12.334;2023-07-20T04:04:07;15.60;99.90
10386;DHT22;34307;51.332;12.334;2023-07-20T04:06:39;15.60;99.90
10386;DHT22;34307;51.332;12.334;2023-07-20T04:09:07;15.60;99.90
10386;DHT22;34307;51.332;12.334;2023-07-20T04:11:35;15.60;99.90
10386;DHT22;34307;51.332;12.334;2023-07-20T04:14:04;15.60;99.90
10386;DHT22;34307;51.332;12.334;2023-07-20T04:16:32;15.60;99.90
10386;DHT22;34307;51.332;12.334;2023-07-20T04:19:02;15.60;99.90
10386;DHT22;34307;51.332;12.334;2023-07-20T04:21:32;15.70;99.90
10386;DHT22;34307;51.332;12.334;2023-07-20T04:24:01;15.60;99.90
10386;DHT22;34307;51.332;12.334;2023-07-20T04:26:32;15.70;99.90
10386;DHT22;34307;51.332;12.334;2023-07-20T04:29:00;15.60;99.90
10386;DHT22;34307;51.332;12.334;2023-07-20T04:31:31;15.50;99.90
10386;DHT22;34307;51.332;12.334;2023-07-20T04:34:00;15.50;99.90
10386;DHT22;34307;51.332;12.334;2023-07-20T04:36:29;15.60;99.90
10386;DHT22;34307;51.332;12.334;2023-07-20T04:38:58;15.60;99.90
10386;DHT22;34307;51.332;12.334;2023-07-20T04:41:26;15.60;99.90
10386;DHT22;34307;51.332;12.334;2023-07-20T04:43:55;15.60;99.90
10386;DHT22;34307;51.332;12.334;2023-07-20T04:46:23;15.70;99.90
10386;DHT22;34307;51.332;12.334;2023-07-20T04:48:52;15.80;99.90
10386;DHT22;34307;51.332;12.334;2023-07-20T04:51:20;15.70;99.90
10386;DHT22;34307;51.332;12.334;2023-07-20T04:53:49;15.80;99.90
10386;DHT22;34307;51.332;12.334;2023-07-20T04:56:20;15.70;99.90
10386;DHT22;34307;51.332;12.334;2023-07-20T04:58:50;15.70;99.90
10386;DHT22;34307;51.332;12.334;2023-07-20T05:01:18;15.70;99.90
10386;DHT22;34307;51.332;12.334;2023-07-20T05:03:47;15.70;99.90
10386;DHT22;34307;51.332;12.334;2023-07-20T05:06:16;15.70;99.90
10386;DHT22;34307;51.332;12.334;2023-07-20T05:08:45;15.70;99.90
10386;DHT22;34307;51.332;12.334;2023-07-20T05:11:13;15.70;99.90
10386;DHT22;34307;51.332;12.334;2023-07-20T05:13:44;15.70;99.90
10386;DHT22;34307;51.332;12.334;2023-07-20T05:16:14;15.80;99.90
10386;DHT22;34307;51.332;12.334;2023-07-20T05:18:42;15.90;99.90
10386;DHT22;34307;51.332;12.334;2023-07-20T05:21:10;15.90;99.90
10386;DHT22;34307;51.332;12.334;2023-07-20T05:23:41;16.10;99.90
10386;DHT22;34307;51.332;12.334;2023-07-20T05:26:09;16.10;99.90
10386;DHT22;34307;51.332;12.334;2023-07-20T05:28:38;16.00;99.90
10386;DHT22;34307;51.332;12.334;2023-07-20T05:31:07;16.10;99.90
10386;DHT22;34307;51.332;12.334;2023-07-20T05:33:35;16.10;99.90
10386;DHT22;34307;51.332;12.334;2023-07-20T05:36:04;16.10;99.90
10386;DHT22;34307;51.332;12.334;2023-07-20T05:38:34;16.10;99.90
10386;DHT22;34307;51.332;12.334;2023-07-20T05:41:01;16.20;99.90
10386;DHT22;34307;51.332;12.334;2023-07-20T05:43:30;16.20;99.90
10386;DHT22;34307;51.332;12.334;2023-07-20T05:45:58;16.00;99.90
10386;DHT22;34307;51.332;12.334;2023-07-20T05:48:29;16.10;99.90
10386;DHT22;34307;51.332;12.334;2023-07-20T05:50:58;16.00;99.90
10386;DHT22;34307;51.332;12.334;2023-07-20T05:53:26;16.10;99.90
10386;DHT22;34307;51.332;12.334;2023-07-20T05:55:55;16.30;99.90
10386;DHT22;34307;51.332;12.334;2023-07-20T05:58:23;16.30;99.90
10386;DHT22;34307;51.332;12.334;2023-07-20T06:00:53;16.40;99.90
10386;DHT22;34307;51.332;12.334;2023-07-20T06:03:25;16.30;99.90
10386;DHT22;34307;51.332;12.334;2023-07-20T06:05:59;16.60;99.90
10386;DHT22;34307;51.332;12.334;2023-07-20T06:08:27;16.70;99.90
10386;DHT22;34307;51.332;12.334;2023-07-20T06:10:56;16.90;99.90
10386;DHT22;34307;51.332;12.334;2023-07-20T06:13:24;16.90;99.90
10386;DHT22;34307;51.332;12.334;2023-07-20T06:15:54;16.70;99.90
10386;DHT22;34307;51.332;12.334;2023-07-20T06:18:22;16.80;99.90
10386;DHT22;34307;51.332;12.334;2023-07-20T06:20:55;17.00;99.90
10386;DHT22;34307;51.332;12.334;2023-07-20T06:23:24;17.10;99.90
10386;DHT22;34307;51.332;12.334;2023-07-20T06:25:52;17.20;99.90
10386;DHT22;34307;51.332;12.334;2023-07-20T06:28:21;17.30;99.90
10386;DHT22;34307;51.332;12.334;2023-07-20T06:30:50;17.30;99.90
10386;DHT22;34307;51.332;12.334;2023-07-20T06:33:20;17.20;99.90
10386;DHT22;34307;51.332;12.334;2023-07-20T06:35:49;17.10;99.90
10386;DHT22;34307;51.332;12.334;2023-07-20T06:38:20;17.00;99.90
10386;DHT22;34307;51.332;12.334;2023-07-20T06:40:54;17.10;99.90
10386;DHT22;34307;51.332;12.334;2023-07-20T06:43:24;17.10;99.90
10386;DHT22;34307;51.332;12.334;2023-07-20T06:45:55;17.20;99.90
10386;DHT22;34307;51.332;12.334;2023-07-20T06:48:25;17.50;99.90
10386;DHT22;34307;51.332;12.334;2023-07-20T06:50:56;17.70;99.90
10386;DHT22;34307;51.332;12.334;2023-07-20T06:53:26;18.00;99.90
10386;DHT22;34307;51.332;12.334;2023-07-20T06:56:00;18.20;99.90
10386;DHT22;34307;51.332;12.334;2023-07-20T06:58:29;18.40;99.90
10386;DHT22;34307;51.332;12.334;2023-07-20T07:01:07;18.20;99.90
10386;DHT22;34307;51.332;12.334;2023-07-20T07:03:37;18.10;99.90
10386;DHT22;34307;51.332;12.334;2023-07-20T07:06:05;17.80;99.90
10386;DHT22;34307;51.332;12.334;2023-07-20T07:08:34;18.00;99.90
10386;DHT22;34307;51.332;12.334;2023-07-20T07:11:04;18.20;99.90
10386;DHT22;34307;51.332;12.334;2023-07-20T07:13:34;18.20;99.90
10386;DHT22;34307;51.332;12.334;2023-07-20T07:16:01;18.10;99.90
10386;DHT22;34307;51.332;12.334;2023-07-20T07:18:29;18.10;99.90
10386;DHT22;34307;51.332;12.334;2023-07-20T07:20:59;18.10;99.90
10386;DHT22;34307;51.332;12.334;2023-07-20T07:23:29;18.10;99.90
10386;DHT22;34307;51.332;12.334;2023-07-20T07:25:57;18.30;99.90
10386;DHT22;34307;51.332;12.334;2023-07-20T07:28:27;18.20;99.90
10386;DHT22;34307;51.332;12.334;2023-07-20T07:30:57;17.80;99.90
10386;DHT22;34307;51.332;12.334;2023-07-20T07:33:25;17.50;99.90
10386;DHT22;34307;51.332;12.334;2023-07-20T07:35:55;17.50;99.90
10386;DHT22;34307;51.332;12.334;2023-07-20T07:38:26;17.70;99.90
10386;DHT22;34307;51.332;12.334;2023-07-20T07:41:15;17.60;99.90
10386;DHT22;34307;51.332;12.334;2023-07-20T07:43:45;17.30;99.90
10386;DHT22;34307;51.332;12.334;2023-07-20T07:46:13;17.50;99.90
10386;DHT22;34307;51.332;12.334;2023-07-20T07:48:43;17.70;99.90
10386;DHT22;34307;51.332;12.334;2023-07-20T07:51:10;17.80;99.90
10386;DHT22;34307;51.332;12.334;2023-07-20T07:53:40;18.10;99.90
10386;DHT22;34307;51.332;12.334;2023-07-20T07:56:11;18.30;99.90
10386;DHT22;34307;51.332;12.334;2023-07-20T07:58:41;18.30;99.90
10386;DHT22;34307;51.332;12.334;2023-07-20T08:01:10;18.10;99.90
10386;DHT22;34307;51.332;12.334;2023-07-20T08:03:40;17.80;99.90
10386;DHT22;34307;51.332;12.334;2023-07-20T08:06:08;17.90;99.90
10386;DHT22;34307;51.332;12.334;2023-07-20T08:08:48;18.10;99.90
10386;DHT22;34307;51.332;12.334;2023-07-20T08:11:17;18.40;99.90
10386;DHT22;34307;51.332;12.334;2023-07-20T08:13:48;18.50;99.90
10386;DHT22;34307;51.332;12.334;2023-07-20T08:16:36;18.80;99.90
10386;DHT22;34307;51.332;12.334;2023-07-20T08:19:11;18.80;99.90
10386;DHT22;34307;51.332;12.334;2023-07-20T08:21:40;18.90;99.90
10386;DHT22;34307;51.332;12.334;2023-07-20T08:24:12;19.20;99.90
10386;DHT22;34307;51.332;12.334;2023-07-20T08:26:55;19.20;99.90
10386;DHT22;34307;51.332;12.334;2023-07-20T08:29:43;19.60;99.90
10386;DHT22;34307;51.332;12.334;2023-07-20T08:32:14;19.50;99.90
10386;DHT22;34307;51.332;12.334;2023-07-20T08:34:45;19.50;99.90
10386;DHT22;34307;51.332;12.334;2023-07-20T08:37:15;19.30;99.90
10386;DHT22;34307;51.332;12.334;2023-07-20T08:39:43;19.30;99.90
10386;DHT22;34307;51.332;12.334;2023-07-20T08:42:12;19.20;99.90
10386;DHT22;34307;51.332;12.334;2023-07-20T08:44:45;18.90;99.90
10386;DHT22;34307;51.332;12.334;2023-07-20T08:47:26;19.40;99.90
10386;DHT22;34307;51.332;12.334;2023-07-20T08:49:56;19.80;99.90
10386;DHT22;34307;51.332;12.334;2023-07-20T08:52:24;20.40;99.90
10386;DHT22;34307;51.332;12.334;2023-07-20T08:54:53;20.70;99.90
10386;DHT22;34307;51.332;12.334;2023-07-20T08:57:22;20.80;95.90
10386;DHT22;34307;51.332;12.334;2023-07-20T08:59:55;20.50;97.50
10386;DHT22;34307;51.332;12.334;2023-07-20T09:02:25;20.50;98.20
10386;DHT22;34307;51.332;12.334;2023-07-20T09:04:54;20.80;99.90
10386;DHT22;34307;51.332;12.334;2023-07-20T09:07:25;21.50;90.90
10386;DHT22;34307;51.332;12.334;2023-07-20T09:09:57;22.00;76.50
10386;DHT22;34307;51.332;12.334;2023-07-20T09:12:26;21.80;75.20
10386;DHT22;34307;51.332;12.334;2023-07-20T09:14:57;21.60;70.40
10386;DHT22;34307;51.332;12.334;2023-07-20T09:17:27;21.40;80.80
10386;DHT22;34307;51.332;12.334;2023-07-20T09:19:56;21.00;79.30
10386;DHT22;34307;51.332;12.334;2023-07-20T09:22:30;21.00;89.40
10386;DHT22;34307;51.332;12.334;2023-07-20T09:25:01;21.00;90.00
10386;DHT22;34307;51.332;12.334;2023-07-20T09:27:35;21.10;83.90
10386;DHT22;34307;51.332;12.334;2023-07-20T09:30:07;20.90;83.10
10386;DHT22;34307;51.332;12.334;2023-07-20T09:32:43;20.60;93.90
10386;DHT22;34307;51.332;12.334;2023-07-20T09:35:15;20.60;96.40
10386;DHT22;34307;51.332;12.334;2023-07-20T09:37:47;20.20;92.50
10386;DHT22;34307;51.332;12.334;2023-07-20T09:40:19;20.30;97.30
10386;DHT22;34307;51.332;12.334;2023-07-20T09:43:10;20.20;97.60
10386;DHT22;34307;51.332;12.334;2023-07-20T09:45:43;19.90;99.90
10386;DHT22;34307;51.332;12.334;2023-07-20T09:48:15;18.80;99.90
10386;DHT22;34307;51.332;12.334;2023-07-20T09:50:53;17.40;99.90
10386;DHT22;34307;51.332;12.334;2023-07-20T09:53:25;16.50;99.90
10386;DHT22;34307;51.332;12.334;2023-07-20T09:55:55;15.60;99.90
10386;DHT22;34307;51.332;12.334;2023-07-20T09:58:22;15.40;99.90
10386;DHT22;34307;51.332;12.334;2023-07-20T10:00:52;15.50;99.90
10386;DHT22;34307;51.332;12.334;2023-07-20T10:03:28;15.20;99.90
10386;DHT22;34307;51.332;12.334;2023-07-20T10:06:06;15.30;99.90
10386;DHT22;34307;51.332;12.334;2023-07-20T10:08:39;15.60;99.90
10386;DHT22;34307;51.332;12.334;2023-07-20T10:11:13;15.70;99.90
10386;DHT22;34307;51.332;12.334;2023-07-20T10:13:44;15.70;99.90
10386;DHT22;34307;51.332;12.334;2023-07-20T10:16:15;15.90;99.90
10386;DHT22;34307;51.332;12.334;2023-07-20T10:18:53;16.10;99.90
10386;DHT22;34307;51.332;12.334;2023-07-20T10:21:23;16.20;99.90
10386;DHT22;34307;51.332;12.334;2023-07-20T10:23:56;16.20;99.90
10386;DHT22;34307;51.332;12.334;2023-07-20T10:26:26;16.30;99.90
10386;DHT22;34307;51.332;12.334;2023-07-20T10:28:57;16.10;99.90
10386;DHT22;34307;51.332;12.334;2023-07-20T10:31:26;16.00;99.90
10386;DHT22;34307;51.332;12.334;2023-07-20T10:33:59;15.40;99.90
10386;DHT22;34307;51.332;12.334;2023-07-20T10:36:28;15.30;99.90
10386;DHT22;34307;51.332;12.334;2023-07-20T10:38:58;15.50;99.90
10386;DHT22;34307;51.332;12.334;2023-07-20T10:41:28;15.60;99.90
10386;DHT22;34307;51.332;12.334;2023-07-20T10:44:02;15.70;99.90
10386;DHT22;34307;51.332;12.334;2023-07-20T10:46:42;15.50;99.90
10386;DHT22;34307;51.332;12.334;2023-07-20T10:49:14;15.70;99.90
10386;DHT22;34307;51.332;12.334;2023-07-20T10:51:44;16.00;99.90
10386;DHT22;34307;51.332;12.334;2023-07-20T10:54:46;16.10;99.90
10386;DHT22;34307;51.332;12.334;2023-07-20T10:57:28;16.00;99.90
10386;DHT22;34307;51.332;12.334;2023-07-20T11:00:10;16.20;99.90
10386;DHT22;34307;51.332;12.334;2023-07-20T11:02:46;16.30;99.90
10386;DHT22;34307;51.332;12.334;2023-07-20T11:05:34;16.60;99.90
10386;DHT22;34307;51.332;12.334;2023-07-20T11:08:06;16.70;99.90
10386;DHT22;34307;51.332;12.334;2023-07-20T11:10:34;17.10;99.90
10386;DHT22;34307;51.332;12.334;2023-07-20T11:13:20;17.40;99.90
10386;DHT22;34307;51.332;12.334;2023-07-20T11:16:04;17.40;99.90
10386;DHT22;34307;51.332;12.334;2023-07-20T11:18:43;17.30;99.90
10386;DHT22;34307;51.332;12.334;2023-07-20T11:21:13;17.20;99.90
10386;DHT22;34307;51.332;12.334;2023-07-20T11:23:43;17.10;99.90
10386;DHT22;34307;51.332;12.334;2023-07-20T11:26:13;17.10;99.90
10386;DHT22;34307;51.332;12.334;2023-07-20T11:28:42;17.50;99.90
10386;DHT22;34307;51.332;12.334;2023-07-20T11:31:13;17.50;99.90
10386;DHT22;34307;51.332;12.334;2023-07-20T11:33:43;17.50;99.90
10386;DHT22;34307;51.332;12.334;2023-07-20T11:36:12;17.60;99.90
10386;DHT22;34307;51.332;12.334;2023-07-20T11:38:45;17.40;99.90
10386;DHT22;34307;51.332;12.334;2023-07-20T11:41:17;17.50;99.90
10386;DHT22;34307;51.332;12.334;2023-07-20T11:43:47;17.50;99.90
10386;DHT22;34307;51.332;12.334;2023-07-20T11:46:15;17.60;99.90
10386;DHT22;34307;51.332;12.334;2023-07-20T11:48:44;17.80;99.90
10386;DHT22;34307;51.332;12.334;2023-07-20T11:51:19;17.90;99.90
10386;DHT22;34307;51.332;12.334;2023-07-20T11:53:48;18.10;99.90
10386;DHT22;34307;51.332;12.334;2023-07-20T11:56:16;18.20;99.90
10386;DHT22;34307;51.332;12.334;2023-07-20T11:58:47;18.30;99.90
10386;DHT22;34307;51.332;12.334;2023-07-20T12:01:16;18.30;99.90
10386;DHT22;34307;51.332;12.334;2023-07-20T12:03:45;17.90;99.90
10386;DHT22;34307;51.332;12.334;2023-07-20T12:06:13;17.80;99.90
10386;DHT22;34307;51.332;12.334;2023-07-20T12:08:44;17.90;99.90
10386;DHT22;34307;51.332;12.334;2023-07-20T12:11:14;17.80;99.90
10386;DHT22;34307;51.332;12.334;2023-07-20T12:13:43;17.80;99.90
10386;DHT22;34307;51.332;12.334;2023-07-20T12:16:12;18.20;99.90
10386;DHT22;34307;51.332;12.334;2023-07-20T12:18:42;17.90;99.90
10386;DHT22;34307;51.332;12.334;2023-07-20T12:21:11;18.10;99.90
10386;DHT22;34307;51.332;12.334;2023-07-20T12:23:40;18.50;99.90
10386;DHT22;34307;51.332;12.334;2023-07-20T12:26:10;18.90;99.90
10386;DHT22;34307;51.332;12.334;2023-07-20T12:28:39;19.10;99.90
10386;DHT22;34307;51.332;12.334;2023-07-20T12:31:09;19.30;99.90
10386;DHT22;34307;51.332;12.334;2023-07-20T12:33:38;19.40;99.90
10386;DHT22;34307;51.332;12.334;2023-07-20T12:36:07;20.20;99.90
10386;DHT22;34307;51.332;12.334;2023-07-20T12:38:36;20.50;99.90
10386;DHT22;34307;51.332;12.334;2023-07-20T12:41:05;20.80;99.90
10386;DHT22;34307;51.332;12.334;2023-07-20T12:43:36;20.00;99.90
10386;DHT22;34307;51.332;12.334;2023-07-20T12:46:04;19.90;99.90
10386;DHT22;34307;51.332;12.334;2023-07-20T12:48:33;20.00;99.90
10386;DHT22;34307;51.332;12.334;2023-07-20T12:51:03;20.10;99.90
10386;DHT22;34307;51.332;12.334;2023-07-20T12:53:31;19.80;99.90
10386;DHT22;34307;51.332;12.334;2023-07-20T12:56:00;19.60;99.90
10386;DHT22;34307;51.332;12.334;2023-07-20T12:58:50;19.70;99.90
10386;DHT22;34307;51.332;12.334;2023-07-20T13:01:18;20.30;99.90
10386;DHT22;34307;51.332;12.334;2023-07-20T13:03:47;20.50;99.90
10386;DHT22;34307;51.332;12.334;2023-07-20T13:06:21;20.00;99.90
10386;DHT22;34307;51.332;12.334;2023-07-20T13:08:52;19.90;99.90
10386;DHT22;34307;51.332;12.334;2023-07-20T13:11:24;19.60;99.90
10386;DHT22;34307;51.332;12.334;2023-07-20T13:13:54;19.60;99.90
10386;DHT22;34307;51.332;12.334;2023-07-20T13:16:22;19.50;99.90
10386;DHT22;34307;51.332;12.334;2023-07-20T13:18:51;19.20;99.90
10386;DHT22;34307;51.332;12.334;2023-07-20T13:21:24;19.20;99.90
10386;DHT22;34307;51.332;12.334;2023-07-20T13:23:52;19.20;99.90
10386;DHT22;34307;51.332;12.334;2023-07-20T13:26:21;19.30;99.90
10386;DHT22;34307;51.332;12.334;2023-07-20T13:28:51;19.50;99.90
10386;DHT22;34307;51.332;12.334;2023-07-20T13:31:25;20.20;99.90
10386;DHT22;34307;51.332;12.334;2023-07-20T13:34:00;20.70;99.90
10386;DHT22;34307;51.332;12.334;2023-07-20T13:36:29;20.80;96.70
10386;DHT22;34307;51.332;12.334;2023-07-20T13:39:02;20.50;96.00
10386;DHT22;34307;51.332;12.334;2023-07-20T13:41:32;20.50;99.50
10386;DHT22;34307;51.332;12.334;2023-07-20T13:44:04;20.50;95.90
10386;DHT22;34307;51.332;12.334;2023-07-20T13:46:34;19.90;97.60
10386;DHT22;34307;51.332;12.334;2023-07-20T13:49:06;20.20;97.00
10386;DHT22;34307;51.332;12.334;2023-07-20T13:51:48;20.80;98.10
10386;DHT22;34307;51.332;12.334;2023-07-20T13:54:36;21.20;92.20
10386;DHT22;34307;51.332;12.334;2023-07-20T13:57:12;21.30;66.00
10386;DHT22;34307;51.332;12.334;2023-07-20T13:59:41;20.60;61.00
10386;DHT22;34307;51.332;12.334;2023-07-20T14:02:15;21.30;61.50
10386;DHT22;34307;51.332;12.334;2023-07-20T14:04:46;21.70;52.50
10386;DHT22;34307;51.332;12.334;2023-07-20T14:07:15;21.80;49.00
10386;DHT22;34307;51.332;12.334;2023-07-20T14:09:44;21.40;49.10
10386;DHT22;34307;51.332;12.334;2023-07-20T14:12:17;21.90;49.70
10386;DHT22;34307;51.332;12.334;2023-07-20T14:14:46;22.80;47.00
10386;DHT22;34307;51.332;12.334;2023-07-20T14:17:18;22.30;45.60
10386;DHT22;34307;51.332;12.334;2023-07-20T14:19:46;22.80;45.30
10386;DHT22;34307;51.332;12.334;2023-07-20T14:22:16;22.20;43.80
10386;DHT22;34307;51.332;12.334;2023-07-20T14:24:46;22.30;39.10
10386;DHT22;34307;51.332;12.334;2023-07-20T14:27:16;22.40;37.70
10386;DHT22;34307;51.332;12.334;2023-07-20T14:29:44;22.70;30.80
10386;DHT22;34307;51.332;12.334;2023-07-20T14:32:18;23.30;35.80
10386;DHT22;34307;51.332;12.334;2023-07-20T14:34:51;24.50;25.50
10386;DHT22;34307;51.332;12.334;2023-07-20T14:37:22;24.50;20.70
10386;DHT22;34307;51.332;12.334;2023-07-20T14:39:50;23.40;19.40
10386;DHT22;34307;51.332;12.334;2023-07-20T14:42:18;23.40;24.80
10386;DHT22;34307;51.332;12.334;2023-07-20T14:44:48;23.80;19.90
10386;DHT22;34307;51.332;12.334;2023-07-20T14:47:19;23.70;19.10
10386;DHT22;34307;51.332;12.334;2023-07-20T14:49:51;24.20;10.00
10386;DHT22;34307;51.332;12.334;2023-07-20T14:52:19;24.20;8.70
10386;DHT22;34307;51.332;12.334;2023-07-20T14:54:47;24.20;12.20
10386;DHT22;34307;51.332;12.334;2023-07-20T14:57:16;24.10;9.10
10386;DHT22;34307;51.332;12.334;2023-07-20T14:59:45;24.70;14.20
10386;DHT22;34307;51.332;12.334;2023-07-20T15:02:13;23.70;8.90
10386;DHT22;34307;51.332;12.334;2023-07-20T15:04:47;24.20;10.00
10386;DHT22;34307;51.332;12.334;2023-07-20T15:07:20;23.60;11.00
10386;DHT22;34307;51.332;12.334;2023-07-20T15:09:48;23.20;10.00
10386;DHT22;34307;51.332;12.334;2023-07-20T15:12:16;22.90;14.40
10386;DHT22;34307;51.332;12.334;2023-07-20T15:15:01;23.30;15.70
10386;DHT22;34307;51.332;12.334;2023-07-20T15:17:31;23.90;14.40
10386;DHT22;34307;51.332;12.334;2023-07-20T15:20:02;24.40;3.10
10386;DHT22;34307;51.332;12.334;2023-07-20T15:22:32;24.10;3.00
10386;DHT22;34307;51.332;12.334;2023-07-20T15:25:03;24.30;3.50
10386;DHT22;34307;51.332;12.334;2023-07-20T15:27:32;25.10;1.00
10386;DHT22;34307;51.332;12.334;2023-07-20T15:30:00;25.30;1.00
10386;DHT22;34307;51.332;12.334;2023-07-20T15:32:29;24.50;1.00
10386;DHT22;34307;51.332;12.334;2023-07-20T15:35:18;25.00;1.00
10386;DHT22;34307;51.332;12.334;2023-07-20T15:37:49;25.20;1.00
10386;DHT22;34307;51.332;12.334;2023-07-20T15:40:17;25.60;1.00
10386;DHT22;34307;51.332;12.334;2023-07-20T15:42:45;25.80;1.00